sensor_id;sensor_type;location;lat;lon;timestamp;pressure;altitude;pressure_sealevel;temperature;humidity
73267;BME280;61495;53.400;7.608;2023-12-28T00:01:24;100412.84;;;7.34;100.00
73267;BME280;61495;53.400;7.608;2023-12-28T00:03:49;100420.66;;;7.36;100.00
73267;BME280;61495;53.400;7.608;2023-12-28T00:06:15;100416.16;;;7.36;100.00
73267;BME280;61495;53.400;7.608;2023-12-28T00:08:41;100419.59;;;7.37;100.00
73267;BME280;61495;53.400;7.608;2023-12-28T00:11:07;100436.44;;;7.37;100.00
73267;BME280;61495;53.400;7.608;2023-12-28T00:13:32;100419.44;;;7.38;100.00
73267;BME280;61495;53.400;7.608;2023-12-28T00:15:58;100413.28;;;7.38;100.00
73267;BME280;61495;53.400;7.608;2023-12-28T00:18:23;100421.88;;;7.33;100.00
73267;BME280;61495;53.400;7.608;2023-12-28T00:20:49;100427.22;;;7.40;100.00
73267;BME280;61495;53.400;7.608;2023-12-28T00:23:14;100444.84;;;7.41;100.00
73267;BME280;61495;53.400;7.608;2023-12-28T00:25:40;100434.41;;;7.39;100.00
73267;BME280;61495;53.400;7.608;2023-12-28T00:28:05;100442.81;;;7.43;100.00
73267;BME280;61495;53.400;7.608;2023-12-28T00:30:30;100443.63;;;7.43;100.00
73267;BME280;61495;53.400;7.608;2023-12-28T00:32:57;100456.78;;;7.45;100.00
73267;BME280;61495;53.400;7.608;2023-12-28T00:35:22;100444.06;;;7.47;100.00
73267;BME280;61495;53.400;7.608;2023-12-28T00:37:48;100454.75;;;7.47;100.00
73267;BME280;61495;53.400;7.608;2023-12-28T00:40:13;100464.19;;;7.49;100.00
73267;BME280;61495;53.400;7.608;2023-12-28T00:42:38;100448.00;;;7.51;100.00
73267;BME280;61495;53.400;7.608;2023-12-28T00:45:06;100445.34;;;7.51;100.00
73267;BME280;61495;53.400;7.608;2023-12-28T00:47:32;100461.94;;;7.53;100.00
73267;BME280;61495;53.400;7.608;2023-12-28T00:49:57;100456.63;;;7.53;100.00
73267;BME280;61495;53.400;7.608;2023-12-28T00:52:23;100450.03;;;7.49;100.00
73267;BME280;61495;53.400;7.608;2023-12-28T00:54:48;100458.47;;;7.52;100.00
73267;BME280;61495;53.400;7.608;2023-12-28T00:57:13;100455.63;;;7.54;100.00
73267;BME280;61495;53.400;7.608;2023-12-28T00:59:39;100473.63;;;7.52;100.00
73267;BME280;61495;53.400;7.608;2023-12-28T01:02:04;100457.63;;;7.52;100.00
73267;BME280;61495;53.400;7.608;2023-12-28T01:04:29;100473.63;;;7.52;100.00
73267;BME280;61495;53.400;7.608;2023-12-28T01:06:55;100466.66;;;7.51;100.00
73267;BME280;61495;53.400;7.608;2023-12-28T01:09:20;100457.00;;;7.50;100.00
73267;BME280;61495;53.400;7.608;2023-12-28T01:11:45;100465.16;;;7.42;100.00
73267;BME280;61495;53.400;7.608;2023-12-28T01:14:11;100468.69;;;7.49;100.00
73267;BME280;61495;53.400;7.608;2023-12-28T01:16:36;100473.63;;;7.52;100.00
73267;BME280;61495;53.400;7.608;2023-12-28T01:19:04;100475.66;;;7.50;100.00
73267;BME280;61495;53.400;7.608;2023-12-28T01:21:30;100486.31;;;7.50;100.00
73267;BME280;61495;53.400;7.608;2023-12-28T01:23:55;100498.66;;;7.51;100.00
73267;BME280;61495;53.400;7.608;2023-12-28T01:26:20;100487.97;;;7.51;100.00
73267;BME280;61495;53.400;7.608;2023-12-28T01:28:46;100479.72;;;7.46;100.00
73267;BME280;61495;53.400;7.608;2023-12-28T01:31:11;100482.66;;;7.51;100.00
73267;BME280;61495;53.400;7.608;2023-12-28T01:33:37;100484.28;;;7.52;100.00
73267;BME280;61495;53.400;7.608;2023-12-28T01:36:02;100491.28;;;7.53;100.00
73267;BME280;61495;53.400;7.608;2023-12-28T01:38:28;100488.41;;;7.54;100.00
73267;BME280;61495;53.400;7.608;2023-12-28T01:40:53;100487.59;;;7.54;100.00
73267;BME280;61495;53.400;7.608;2023-12-28T01:43:19;100490.06;;;7.55;100.00
73267;BME280;61495;53.400;7.608;2023-12-28T01:45:45;100499.25;;;7.53;100.00
73267;BME280;61495;53.400;7.608;2023-12-28T01:48:11;100506.25;;;7.54;100.00
73267;BME280;61495;53.400;7.608;2023-12-28T01:50:38;100500.91;;;7.54;100.00
73267;BME280;61495;53.400;7.608;2023-12-28T01:53:05;100508.09;;;7.53;100.00
73267;BME280;61495;53.400;7.608;2023-12-28T01:55:32;100505.22;;;7.55;100.00
73267;BME280;61495;53.400;7.608;2023-12-28T01:57:59;100509.31;;;7.57;100.00
73267;BME280;61495;53.400;7.608;2023-12-28T02:00:24;100514.88;;;7.56;100.00
73267;BME280;61495;53.400;7.608;2023-12-28T02:02:50;100509.53;;;7.56;100.00
73267;BME280;61495;53.400;7.608;2023-12-28T02:05:16;100519.19;;;7.57;100.00
73267;BME280;61495;53.400;7.608;2023-12-28T02:07:42;100510.16;;;7.58;100.00
73267;BME280;61495;53.400;7.608;2023-12-28T02:10:07;100520.00;;;7.57;100.00
73267;BME280;61495;53.400;7.608;2023-12-28T02:12:33;100522.91;;;7.62;100.00
73267;BME280;61495;53.400;7.608;2023-12-28T02:14:59;100516.75;;;7.62;100.00
73267;BME280;61495;53.400;7.608;2023-12-28T02:17:28;100532.94;;;7.60;100.00
73267;BME280;61495;53.400;7.608;2023-12-28T02:19:56;100532.94;;;7.60;100.00
73267;BME280;61495;53.400;7.608;2023-12-28T02:22:26;100515.88;;;7.55;100.00
73267;BME280;61495;53.400;7.608;2023-12-28T02:24:59;100530.69;;;7.64;100.00
73267;BME280;61495;53.400;7.608;2023-12-28T02:27:25;100524.38;;;7.65;100.00
73267;BME280;61495;53.400;7.608;2023-12-28T02:29:50;100524.53;;;7.63;100.00
73267;BME280;61495;53.400;7.608;2023-12-28T02:32:17;100537.69;;;7.65;100.00
73267;BME280;61495;53.400;7.608;2023-12-28T02:34:50;100536.88;;;7.64;100.00
73267;BME280;61495;53.400;7.608;2023-12-28T02:37:21;100530.69;;;7.64;100.00
73267;BME280;61495;53.400;7.608;2023-12-28T02:39:48;100524.97;;;7.67;100.00
73267;BME280;61495;53.400;7.608;2023-12-28T02:42:14;100526.03;;;7.66;100.00
73267;BME280;61495;53.400;7.608;2023-12-28T02:44:40;100524.97;;;7.67;100.00
73267;BME280;61495;53.400;7.608;2023-12-28T02:47:05;100522.53;;;7.65;100.00
73267;BME280;61495;53.400;7.608;2023-12-28T02:49:31;100518.03;;;7.66;100.00
73267;BME280;61495;53.400;7.608;2023-12-28T02:51:57;100520.03;;;7.64;100.00
73267;BME280;61495;53.400;7.608;2023-12-28T02:54:22;100521.69;;;7.65;100.00
73267;BME280;61495;53.400;7.608;2023-12-28T02:56:47;100514.72;;;7.64;100.00
73267;BME280;61495;53.400;7.608;2023-12-28T02:59:13;100523.75;;;7.63;100.00
73267;BME280;61495;53.400;7.608;2023-12-28T03:01:38;100513.47;;;7.60;100.00
73267;BME280;61495;53.400;7.608;2023-12-28T03:04:05;100513.09;;;7.63;100.00
73267;BME280;61495;53.400;7.608;2023-12-28T03:06:30;100518.41;;;7.63;100.00
73267;BME280;61495;53.400;7.608;2023-12-28T03:08:55;100503.22;;;7.63;100.00
73267;BME280;61495;53.400;7.608;2023-12-28T03:11:21;100501.59;;;7.62;100.00
73267;BME280;61495;53.400;7.608;2023-12-28T03:13:46;100491.94;;;7.61;100.00
73267;BME280;61495;53.400;7.608;2023-12-28T03:16:13;100501.59;;;7.62;100.00
73267;BME280;61495;53.400;7.608;2023-12-28T03:18:39;100490.09;;;7.62;100.00
73267;BME280;61495;53.400;7.608;2023-12-28T03:21:04;100489.47;;;7.60;100.00
73267;BME280;61495;53.400;7.608;2023-12-28T03:23:29;100483.50;;;7.58;100.00
73267;BME280;61495;53.400;7.608;2023-12-28T03:25:55;100490.50;;;7.59;100.00
73267;BME280;61495;53.400;7.608;2023-12-28T03:28:20;100494.16;;;7.58;100.00
73267;BME280;61495;53.400;7.608;2023-12-28T03:30:47;100484.75;;;7.62;100.00
73267;BME280;61495;53.400;7.608;2023-12-28T03:33:12;100487.44;;;7.62;100.00
73267;BME280;61495;53.400;7.608;2023-12-28T03:35:37;100479.44;;;7.62;100.00
73267;BME280;61495;53.400;7.608;2023-12-28T03:38:03;100483.75;;;7.63;100.00
73267;BME280;61495;53.400;7.608;2023-12-28T03:40:28;100474.09;;;7.62;100.00
73267;BME280;61495;53.400;7.608;2023-12-28T03:42:53;100480.88;;;7.64;100.00
73267;BME280;61495;53.400;7.608;2023-12-28T03:45:19;100468.38;;;7.65;100.00
73267;BME280;61495;53.400;7.608;2023-12-28T03:47:45;100472.31;;;7.69;100.00
73267;BME280;61495;53.400;7.608;2023-12-28T03:50:10;100472.94;;;7.71;100.00
73267;BME280;61495;53.400;7.608;2023-12-28T03:52:36;100470.69;;;7.74;100.00
73267;BME280;61495;53.400;7.608;2023-12-28T03:55:01;100467.81;;;7.76;100.00
73267;BME280;61495;53.400;7.608;2023-12-28T03:57:26;100466.19;;;7.75;100.00
73267;BME280;61495;53.400;7.608;2023-12-28T03:59:52;100459.81;;;7.76;100.00
73267;BME280;61495;53.400;7.608;2023-12-28T04:02:19;100475.81;;;7.76;100.00
73267;BME280;61495;53.400;7.608;2023-12-28T04:04:44;100463.53;;;7.81;100.00
73267;BME280;61495;53.400;7.608;2023-12-28T04:07:10;100464.34;;;7.82;100.00
73267;BME280;61495;53.400;7.608;2023-12-28T04:09:35;100458.19;;;7.81;100.00
73267;BME280;61495;53.400;7.608;2023-12-28T04:12:00;100460.47;;;7.84;100.00
73267;BME280;61495;53.400;7.608;2023-12-28T04:14:26;100448.78;;;7.86;100.00
73267;BME280;61495;53.400;7.608;2023-12-28T04:16:54;100452.06;;;7.88;100.00
73267;BME280;61495;53.400;7.608;2023-12-28T04:19:19;100452.09;;;7.94;100.00
73267;BME280;61495;53.400;7.608;2023-12-28T04:21:45;100437.34;;;7.98;100.00
73267;BME280;61495;53.400;7.608;2023-12-28T04:24:10;100444.53;;;7.98;100.00
73267;BME280;61495;53.400;7.608;2023-12-28T04:26:36;100438.97;;;7.99;100.00
73267;BME280;61495;53.400;7.608;2023-12-28T04:29:02;100435.72;;;8.04;100.00
73267;BME280;61495;53.400;7.608;2023-12-28T04:31:27;100438.59;;;8.02;100.00
73267;BME280;61495;53.400;7.608;2023-12-28T04:33:53;100443.91;;;8.02;100.00
73267;BME280;61495;53.400;7.608;2023-12-28T04:36:18;100438.59;;;8.02;100.00
73267;BME280;61495;53.400;7.608;2023-12-28T04:38:43;100433.66;;;7.99;100.00
73267;BME280;61495;53.400;7.608;2023-12-28T04:41:09;100455.84;;;8.06;100.00
73267;BME280;61495;53.400;7.608;2023-12-28T04:43:35;100454.63;;;8.09;100.00
73267;BME280;61495;53.400;7.608;2023-12-28T04:46:04;100444.78;;;8.09;100.00
73267;BME280;61495;53.400;7.608;2023-12-28T04:48:34;100436.56;;;8.11;100.00
73267;BME280;61495;53.400;7.608;2023-12-28T04:51:02;100443.34;;;8.13;100.00
73267;BME280;61495;53.400;7.608;2023-12-28T04:53:27;100434.13;;;8.16;100.00
73267;BME280;61495;53.400;7.608;2023-12-28T04:55:55;100431.25;;;8.17;100.00
73267;BME280;61495;53.400;7.608;2023-12-28T04:58:20;100442.56;;;8.19;100.00
73267;BME280;61495;53.400;7.608;2023-12-28T05:00:46;100437.84;;;8.21;100.00
73267;BME280;61495;53.400;7.608;2023-12-28T05:03:11;100446.44;;;8.23;100.00
73267;BME280;61495;53.400;7.608;2023-12-28T05:05:37;100439.88;;;8.26;100.00
73267;BME280;61495;53.400;7.608;2023-12-28T05:08:02;100438.03;;;8.26;100.00
73267;BME280;61495;53.400;7.608;2023-12-28T05:10:27;100435.38;;;8.26;100.00
73267;BME280;61495;53.400;7.608;2023-12-28T05:12:53;100427.38;;;8.26;100.00
73267;BME280;61495;53.400;7.608;2023-12-28T05:15:18;100428.00;;;8.28;100.00
73267;BME280;61495;53.400;7.608;2023-12-28T05:17:45;100423.31;;;8.30;100.00
73267;BME280;61495;53.400;7.608;2023-12-28T05:20:10;100419.19;;;8.34;100.00
73267;BME280;61495;53.400;7.608;2023-12-28T05:22:35;100416.94;;;8.38;100.00
73267;BME280;61495;53.400;7.608;2023-12-28T05:25:01;100419.00;;;8.36;100.00
73267;BME280;61495;53.400;7.608;2023-12-28T05:27:26;100423.72;;;8.41;100.00
73267;BME280;61495;53.400;7.608;2023-12-28T05:29:52;100430.72;;;8.42;100.00
73267;BME280;61495;53.400;7.608;2023-12-28T05:32:17;100426.41;;;8.41;100.00
73267;BME280;61495;53.400;7.608;2023-12-28T05:34:42;100435.03;;;8.43;100.00
73267;BME280;61495;53.400;7.608;2023-12-28T05:37:08;100431.31;;;8.44;100.00
73267;BME280;61495;53.400;7.608;2023-12-28T05:39:33;100428.47;;;8.45;100.00
73267;BME280;61495;53.400;7.608;2023-12-28T05:41:59;100423.97;;;8.46;100.00
73267;BME280;61495;53.400;7.608;2023-12-28T05:44:24;100432.16;;;8.44;100.00
73267;BME280;61495;53.400;7.608;2023-12-28T05:46:49;100435.84;;;8.50;100.00
73267;BME280;61495;53.400;7.608;2023-12-28T05:49:15;100440.00;;;8.52;100.00
73267;BME280;61495;53.400;7.608;2023-12-28T05:51:41;100435.44;;;8.53;100.00
73267;BME280;61495;53.400;7.608;2023-12-28T05:54:07;100448.22;;;8.57;100.00
73267;BME280;61495;53.400;7.608;2023-12-28T05:56:33;100442.03;;;8.57;100.00
73267;BME280;61495;53.400;7.608;2023-12-28T05:58:58;100425.63;;;8.60;100.00
73267;BME280;61495;53.400;7.608;2023-12-28T06:01:24;100433.41;;;8.61;100.00
73267;BME280;61495;53.400;7.608;2023-12-28T06:03:49;100426.03;;;8.63;100.00
73267;BME280;61495;53.400;7.608;2023-12-28T06:06:17;100427.88;;;8.63;100.00
73267;BME280;61495;53.400;7.608;2023-12-28T06:08:43;100438.56;;;8.63;100.00
73267;BME280;61495;53.400;7.608;2023-12-28T06:11:08;100446.16;;;8.66;100.00
73267;BME280;61495;53.400;7.608;2023-12-28T06:13:34;100445.16;;;8.67;100.00
73267;BME280;61495;53.400;7.608;2023-12-28T06:15:59;100439.16;;;8.65;100.00
73267;BME280;61495;53.400;7.608;2023-12-28T06:18:24;100426.44;;;8.67;100.00
73267;BME280;61495;53.400;7.608;2023-12-28T06:20:50;100448.44;;;8.69;100.00
73267;BME280;61495;53.400;7.608;2023-12-28T06:23:15;100445.75;;;8.69;100.00
73267;BME280;61495;53.400;7.608;2023-12-28T06:25:40;100441.44;;;8.68;100.00
73267;BME280;61495;53.400;7.608;2023-12-28T06:28:06;100441.84;;;8.71;100.00
73267;BME280;61495;53.400;7.608;2023-12-28T06:30:31;100437.13;;;8.73;100.00
73267;BME280;61495;53.400;7.608;2023-12-28T06:32:56;100437.94;;;8.74;100.00
73267;BME280;61495;53.400;7.608;2023-12-28T06:35:22;100426.44;;;8.73;100.00
73267;BME280;61495;53.400;7.608;2023-12-28T06:37:47;100427.25;;;8.74;100.00
73267;BME280;61495;53.400;7.608;2023-12-28T06:40:12;100432.59;;;8.74;100.00
73267;BME280;61495;53.400;7.608;2023-12-28T06:42:38;100428.91;;;8.75;100.00
73267;BME280;61495;53.400;7.608;2023-12-28T06:45:04;100433.44;;;8.74;100.00
73267;BME280;61495;53.400;7.608;2023-12-28T06:47:29;100427.91;;;8.76;100.00
73267;BME280;61495;53.400;7.608;2023-12-28T06:49:55;100422.56;;;8.76;100.00
73267;BME280;61495;53.400;7.608;2023-12-28T06:52:20;100414.53;;;8.76;100.00
73267;BME280;61495;53.400;7.608;2023-12-28T06:54:45;100414.09;;;8.79;100.00
73267;BME280;61495;53.400;7.608;2023-12-28T06:57:11;100408.34;;;8.82;100.00
73267;BME280;61495;53.400;7.608;2023-12-28T06:59:36;100405.50;;;8.83;100.00
73267;BME280;61495;53.400;7.608;2023-12-28T07:02:01;100411.44;;;8.85;100.00
73267;BME280;61495;53.400;7.608;2023-12-28T07:04:27;100403.00;;;8.88;100.00
73267;BME280;61495;53.400;7.608;2023-12-28T07:06:55;100385.75;;;8.91;100.00
73267;BME280;61495;53.400;7.608;2023-12-28T07:09:20;100398.69;;;8.94;100.00
73267;BME280;61495;53.400;7.608;2023-12-28T07:11:45;100406.09;;;8.92;100.00
73267;BME280;61495;53.400;7.608;2023-12-28T07:14:11;100404.03;;;8.94;100.00
73267;BME280;61495;53.400;7.608;2023-12-28T07:16:36;100390.66;;;8.94;100.00
73267;BME280;61495;53.400;7.608;2023-12-28T07:19:02;100406.28;;;8.97;100.00
73267;BME280;61495;53.400;7.608;2023-12-28T07:21:28;100408.97;;;8.97;100.00
73267;BME280;61495;53.400;7.608;2023-12-28T07:23:54;100434.66;;;8.98;100.00
73267;BME280;61495;53.400;7.608;2023-12-28T07:26:19;100429.91;;;9.00;100.00
73267;BME280;61495;53.400;7.608;2023-12-28T07:28:44;100419.22;;;9.00;100.00
73267;BME280;61495;53.400;7.608;2023-12-28T07:31:22;100440.19;;;9.03;100.00
73267;BME280;61495;53.400;7.608;2023-12-28T07:33:48;100425.22;;;9.02;100.00
73267;BME280;61495;53.400;7.608;2023-12-28T07:36:13;100434.66;;;9.05;100.00
73267;BME280;61495;53.400;7.608;2023-12-28T07:38:38;100434.84;;;9.03;100.00
73267;BME280;61495;53.400;7.608;2023-12-28T07:41:04;100437.53;;;9.03;100.00
73267;BME280;61495;53.400;7.608;2023-12-28T07:43:29;100423.38;;;9.03;100.00
73267;BME280;61495;53.400;7.608;2023-12-28T07:45:54;100445.13;;;9.06;100.00
73267;BME280;61495;53.400;7.608;2023-12-28T07:48:20;100443.69;;;9.10;100.00
73267;BME280;61495;53.400;7.608;2023-12-28T07:50:45;100448.44;;;9.08;100.00
73267;BME280;61495;53.400;7.608;2023-12-28T07:53:11;100433.00;;;9.10;100.00
73267;BME280;61495;53.400;7.608;2023-12-28T07:55:36;100446.97;;;9.12;100.00
73267;BME280;61495;53.400;7.608;2023-12-28T07:58:02;100445.34;;;9.11;100.00
73267;BME280;61495;53.400;7.608;2023-12-28T08:00:27;100461.34;;;9.18;100.00
73267;BME280;61495;53.400;7.608;2023-12-28T08:02:52;100471.25;;;9.17;100.00
73267;BME280;61495;53.400;7.608;2023-12-28T08:05:18;100469.38;;;9.18;100.00
73267;BME280;61495;53.400;7.608;2023-12-28T08:07:43;100479.88;;;9.19;100.00
73267;BME280;61495;53.400;7.608;2023-12-28T08:10:09;100462.19;;;9.25;100.00
73267;BME280;61495;53.400;7.608;2023-12-28T08:12:34;100484.81;;;9.22;100.00
73267;BME280;61495;53.400;7.608;2023-12-28T08:14:59;100477.38;;;9.24;100.00
73267;BME280;61495;53.400;7.608;2023-12-28T08:17:25;100480.06;;;9.24;100.00
73267;BME280;61495;53.400;7.608;2023-12-28T08:19:50;100481.91;;;9.24;100.00
73267;BME280;61495;53.400;7.608;2023-12-28T08:22:15;100478.81;;;9.27;100.00
73267;BME280;61495;53.400;7.608;2023-12-28T08:24:41;100496.94;;;9.31;100.00
73267;BME280;61495;53.400;7.608;2023-12-28T08:27:06;100485.81;;;9.34;100.00
73267;BME280;61495;53.400;7.608;2023-12-28T08:29:31;100479.47;;;9.29;100.00
73267;BME280;61495;53.400;7.608;2023-12-28T08:31:57;100496.53;;;9.34;100.00
73267;BME280;61495;53.400;7.608;2023-12-28T08:34:22;100498.13;;;9.35;100.00
73267;BME280;61495;53.400;7.608;2023-12-28T08:36:47;100501.66;;;9.36;100.00
73267;BME280;61495;53.400;7.608;2023-12-28T08:39:13;100497.72;;;9.38;100.00
73267;BME280;61495;53.400;7.608;2023-12-28T08:41:38;100496.72;;;9.39;100.00
73267;BME280;61495;53.400;7.608;2023-12-28T08:44:04;100497.94;;;9.43;100.00
73267;BME280;61495;53.400;7.608;2023-12-28T08:46:29;100511.50;;;9.42;100.00
73267;BME280;61495;53.400;7.608;2023-12-28T08:48:54;100507.00;;;9.42;100.00
73267;BME280;61495;53.400;7.608;2023-12-28T08:51:21;100506.81;;;9.44;100.00
73267;BME280;61495;53.400;7.608;2023-12-28T08:53:47;100515.63;;;9.44;100.00
73267;BME280;61495;53.400;7.608;2023-12-28T08:56:19;100506.56;;;9.45;100.00
73267;BME280;61495;53.400;7.608;2023-12-28T08:58:46;100494.88;;;9.46;100.00
73267;BME280;61495;53.400;7.608;2023-12-28T09:01:22;100492.19;;;9.46;100.00
73267;BME280;61495;53.400;7.608;2023-12-28T09:03:51;100495.47;;;9.48;100.00
73267;BME280;61495;53.400;7.608;2023-12-28T09:06:18;100512.53;;;9.47;100.00
73267;BME280;61495;53.400;7.608;2023-12-28T09:08:44;100509.44;;;9.50;100.00
73267;BME280;61495;53.400;7.608;2023-12-28T09:11:10;100534.34;;;9.51;100.00
73267;BME280;61495;53.400;7.608;2023-12-28T09:13:37;100510.06;;;9.53;100.00
73267;BME280;61495;53.400;7.608;2023-12-28T09:16:03;100507.00;;;9.56;100.00
73267;BME280;61495;53.400;7.608;2023-12-28T09:18:28;100522.22;;;9.55;100.00
73267;BME280;61495;53.400;7.608;2023-12-28T09:20:53;100515.63;;;9.58;100.00
73267;BME280;61495;53.400;7.608;2023-12-28T09:23:19;100520.97;;;9.58;100.00
73267;BME280;61495;53.400;7.608;2023-12-28T09:25:44;100524.25;;;9.60;100.00
73267;BME280;61495;53.400;7.608;2023-12-28T09:28:09;100525.47;;;9.64;100.00
73267;BME280;61495;53.400;7.608;2023-12-28T09:30:35;100536.19;;;9.64;100.00
73267;BME280;61495;53.400;7.608;2023-12-28T09:33:00;100534.09;;;9.66;100.00
73267;BME280;61495;53.400;7.608;2023-12-28T09:35:25;100531.44;;;9.66;100.00
73267;BME280;61495;53.400;7.608;2023-12-28T09:37:51;100525.66;;;9.69;100.00
73267;BME280;61495;53.400;7.608;2023-12-28T09:40:16;100530.00;;;9.70;100.00
73267;BME280;61495;53.400;7.608;2023-12-28T09:45:41;100537.38;;;9.74;100.00
73267;BME280;61495;53.400;7.608;2023-12-28T09:48:07;100562.28;;;9.75;100.00
73267;BME280;61495;53.400;7.608;2023-12-28T09:50:32;100552.63;;;9.74;100.00
73267;BME280;61495;53.400;7.608;2023-12-28T09:52:58;100546.44;;;9.80;100.00
73267;BME280;61495;53.400;7.608;2023-12-28T09:55:24;100557.16;;;9.80;100.00
73267;BME280;61495;53.400;7.608;2023-12-28T09:57:51;100548.91;;;9.81;100.00
73267;BME280;61495;53.400;7.608;2023-12-28T10:00:16;100549.72;;;9.82;100.00
73267;BME280;61495;53.400;7.608;2023-12-28T10:02:44;100558.97;;;9.86;100.00
73267;BME280;61495;53.400;7.608;2023-12-28T10:05:16;100576.06;;;9.85;100.00
73267;BME280;61495;53.400;7.608;2023-12-28T10:07:41;100555.06;;;9.88;100.00
73267;BME280;61495;53.400;7.608;2023-12-28T10:10:07;100574.59;;;9.89;100.00
73267;BME280;61495;53.400;7.608;2023-12-28T10:12:34;100565.38;;;9.91;100.00
73267;BME280;61495;53.400;7.608;2023-12-28T10:14:59;100571.31;;;9.93;100.00
73267;BME280;61495;53.400;7.608;2023-12-28T10:17:25;100564.13;;;9.94;100.00
73267;BME280;61495;53.400;7.608;2023-12-28T10:19:50;100571.09;;;9.95;100.00
73267;BME280;61495;53.400;7.608;2023-12-28T10:22:17;100579.75;;;9.97;100.00
73267;BME280;61495;53.400;7.608;2023-12-28T10:24:43;100590.03;;;10.00;100.00
73267;BME280;61495;53.400;7.608;2023-12-28T10:27:09;100575.84;;;9.99;100.00
73267;BME280;61495;53.400;7.608;2023-12-28T10:29:34;100575.59;;;10.01;100.00
73267;BME280;61495;53.400;7.608;2023-12-28T10:32:00;100576.44;;;10.01;100.00
73267;BME280;61495;53.400;7.608;2023-12-28T10:34:25;100574.59;;;10.02;100.00
73267;BME280;61495;53.400;7.608;2023-12-28T10:36:51;100585.91;;;10.04;100.00
73267;BME280;61495;53.400;7.608;2023-12-28T10:39:19;100561.81;;;10.04;100.00
73267;BME280;61495;53.400;7.608;2023-12-28T10:41:49;100566.13;;;10.05;100.00
73267;BME280;61495;53.400;7.608;2023-12-28T10:44:19;100590.22;;;10.05;100.00
73267;BME280;61495;53.400;7.608;2023-12-28T10:46:47;100582.19;;;10.05;100.00
73267;BME280;61495;53.400;7.608;2023-12-28T10:49:17;100573.16;;;10.06;100.00
73267;BME280;61495;53.400;7.608;2023-12-28T10:51:43;100561.81;;;10.04;100.00
73267;BME280;61495;53.400;7.608;2023-12-28T10:57:01;100576.84;;;10.05;100.00
73267;BME280;61495;53.400;7.608;2023-12-28T10:59:49;100581.19;;;10.06;100.00
73267;BME280;61495;53.400;7.608;2023-12-28T11:02:20;100581.19;;;10.06;100.00
73267;BME280;61495;53.400;7.608;2023-12-28T11:04:50;100566.75;;;10.07;100.00
73267;BME280;61495;53.400;7.608;2023-12-28T11:07:18;100569.41;;;10.07;100.00
73267;BME280;61495;53.400;7.608;2023-12-28T11:09:44;100570.66;;;10.04;100.00
73267;BME280;61495;53.400;7.608;2023-12-28T11:12:10;100563.03;;;10.08;100.00
73267;BME280;61495;53.400;7.608;2023-12-28T11:14:39;100565.13;;;10.06;100.00
73267;BME280;61495;53.400;7.608;2023-12-28T11:17:09;100567.38;;;10.09;100.00
73267;BME280;61495;53.400;7.608;2023-12-28T11:19:35;100557.09;;;10.06;100.00
73267;BME280;61495;53.400;7.608;2023-12-28T11:22:03;100564.69;;;10.09;100.00
73267;BME280;61495;53.400;7.608;2023-12-28T11:24:29;100578.09;;;10.09;100.00
73267;BME280;61495;53.400;7.608;2023-12-28T11:26:56;100569.00;;;10.10;100.00
73267;BME280;61495;53.400;7.608;2023-12-28T11:29:21;100567.38;;;10.09;100.00
73267;BME280;61495;53.400;7.608;2023-12-28T11:31:54;100564.47;;;10.11;100.00
73267;BME280;61495;53.400;7.608;2023-12-28T11:34:31;100557.47;;;10.10;100.00
73267;BME280;61495;53.400;7.608;2023-12-28T11:37:04;100554.59;;;10.11;100.00
73267;BME280;61495;53.400;7.608;2023-12-28T11:39:35;100552.94;;;10.10;100.00
73267;BME280;61495;53.400;7.608;2023-12-28T11:42:02;100566.97;;;10.12;100.00
73267;BME280;61495;53.400;7.608;2023-12-28T11:44:29;100559.34;;;10.09;100.00
73267;BME280;61495;53.400;7.608;2023-12-28T11:46:55;100565.28;;;10.11;100.00
73267;BME280;61495;53.400;7.608;2023-12-28T11:49:30;100567.97;;;10.11;100.00
73267;BME280;61495;53.400;7.608;2023-12-28T11:51:58;100575.19;;;10.11;100.00
73267;BME280;61495;53.400;7.608;2023-12-28T11:54:25;100576.00;;;10.11;100.00
73267;BME280;61495;53.400;7.608;2023-12-28T11:56:54;100570.66;;;10.11;100.00
73267;BME280;61495;53.400;7.608;2023-12-28T11:59:22;100567.16;;;10.11;100.00
73267;BME280;61495;53.400;7.608;2023-12-28T12:01:53;100556.25;;;10.12;100.00
73267;BME280;61495;53.400;7.608;2023-12-28T12:04:20;100558.94;;;10.12;100.00
73267;BME280;61495;53.400;7.608;2023-12-28T12:06:46;100546.34;;;10.13;100.00
73267;BME280;61495;53.400;7.608;2023-12-28T12:09:12;100548.63;;;10.09;100.00
73267;BME280;61495;53.400;7.608;2023-12-28T12:11:37;100552.34;;;10.15;100.00
73267;BME280;61495;53.400;7.608;2023-12-28T12:14:03;100555.84;;;10.09;100.00
73267;BME280;61495;53.400;7.608;2023-12-28T12:16:31;100560.38;;;10.15;100.00
73267;BME280;61495;53.400;7.608;2023-12-28T12:18:57;100552.56;;;10.13;100.00
73267;BME280;61495;53.400;7.608;2023-12-28T12:21:23;100559.34;;;10.16;100.00
73267;BME280;61495;53.400;7.608;2023-12-28T12:23:49;100555.84;;;10.15;100.00
73267;BME280;61495;53.400;7.608;2023-12-28T12:26:17;100560.16;;;10.16;100.00
73267;BME280;61495;53.400;7.608;2023-12-28T12:28:43;100565.94;;;10.13;100.00
73267;BME280;61495;53.400;7.608;2023-12-28T12:31:10;100564.47;;;10.11;100.00
73267;BME280;61495;53.400;7.608;2023-12-28T12:33:36;100541.44;;;10.03;100.00
73267;BME280;61495;53.400;7.608;2023-12-28T12:36:01;100564.06;;;10.07;100.00
73267;BME280;61495;53.400;7.608;2023-12-28T12:38:27;100563.47;;;10.05;100.00
73267;BME280;61495;53.400;7.608;2023-12-28T12:40:53;100566.13;;;10.05;100.00
73267;BME280;61495;53.400;7.608;2023-12-28T12:43:18;100554.84;;;10.03;100.00
73267;BME280;61495;53.400;7.608;2023-12-28T12:45:47;100559.34;;;10.02;100.00
73267;BME280;61495;53.400;7.608;2023-12-28T12:48:13;100558.75;;;10.00;100.00